Terminal Aerodrome Forecast
Issued by NWS

Home | Current Version | Previous Version | Text Only | Print | Product List | Glossary On
Versions: 1 2 3 4 5 6 7 8 9 10 11 12
000
FTUS41 KCAR 300539
TAFHUL
TAF
KHUL 300539Z 3006/3106 20004KT P6SM VCSH BKN100
     FM300900 22005KT P6SM VCSH SCT025 BKN050
     FM301600 26008KT P6SM BKN040
     FM302100 26007KT P6SM SCT140=

USA.gov is the U.S. government's official web portal to all federal, state and local government web resources and services.